Time;durP1;ratioP1;P1;durP2;ratioP2;P2;SDS_P1;SDS_P2;PMS_P1;PMS_P2;Temp;Humidity;BMP_temperature;BMP_pressure;BME280_temperature;BME280_humidity;BME280_pressure;Samples;Min_cycle;Max_cycle;Signal;HPM_P1;HPM_P2
2022/02/05 00:00:05;;;;;;;1.43;0.70;;;3.30;99.90;;;;;;5071459;28;20140;-66
2022/02/05 00:02:23;;;;;;;2.47;1.30;;;3.40;99.90;;;;;;5071422;28;20056;-66
2022/02/05 00:04:50;;;;;;;1.80;1.10;;;3.30;99.90;;;;;;5071857;28;20064;-66
2022/02/05 00:07:17;;;;;;;1.87;0.97;;;3.40;99.90;;;;;;5071639;28;20565;-67
2022/02/05 00:10:02;;;;;;;2.10;1.20;;;3.30;99.90;;;;;;5071912;28;20055;-66
2022/02/05 00:12:46;;;;;;;1.87;0.90;;;3.40;99.90;;;;;;5071689;28;20049;-66
2022/02/05 00:15:29;;;;;;;1.93;0.73;;;3.50;99.90;;;;;;5071462;28;20507;-66
2022/02/05 00:40:03;;;;;;;2.90;1.10;;;3.30;99.90;;;;;;5071479;28;20543;-67
2022/02/05 00:42:38;;;;;;;1.93;0.73;;;3.30;99.90;;;;;;5071430;28;20495;-66
2022/02/05 00:45:09;;;;;;;3.07;0.90;;;3.30;99.90;;;;;;5071158;28;20412;-67
2022/02/05 00:47:39;;;;;;;2.90;1.00;;;3.20;99.90;;;;;;5071316;28;20056;-68
2022/02/05 00:50:11;;;;;;;2.70;0.90;;;3.20;99.90;;;;;;5071394;28;20048;-67
2022/02/05 00:52:39;;;;;;;2.93;1.00;;;3.10;99.90;;;;;;5071042;28;20585;-68
2022/02/05 00:55:10;;;;;;;3.60;0.60;;;3.00;99.90;;;;;;5070931;28;20061;-67
2022/02/05 00:57:46;;;;;;;1.97;1.03;;;3.00;99.90;;;;;;5072825;28;20079;-68
2022/02/05 01:00:18;;;;;;;4.03;1.20;;;2.90;99.90;;;;;;5074758;28;20580;-68
2022/02/05 01:02:45;;;;;;;5.80;1.10;;;2.80;99.90;;;;;;5074821;28;20503;-67
2022/02/05 01:05:12;;;;;;;5.23;1.03;;;2.80;99.90;;;;;;5074442;28;20145;-67
2022/02/05 01:07:40;;;;;;;1.60;0.80;;;2.80;99.90;;;;;;5074838;28;20385;-68
2022/02/05 01:10:08;;;;;;;9.60;1.00;;;2.70;99.90;;;;;;5074695;28;20132;-67
2022/02/05 01:12:38;;;;;;;6.17;1.43;;;2.60;99.90;;;;;;5074580;28;20135;-67
2022/02/05 01:15:06;;;;;;;4.23;0.90;;;2.60;99.90;;;;;;5074364;28;20056;-66
2022/02/05 01:17:39;;;;;;;4.13;0.80;;;2.60;99.90;;;;;;5074473;28;20052;-66
2022/02/05 01:22:53;;;;;;;3.67;0.87;;;2.60;99.90;;;;;;5074386;28;20044;-66
2022/02/05 01:25:25;;;;;;;5.50;0.80;;;2.60;99.90;;;;;;5074108;28;20063;-66
2022/02/05 01:27:55;;;;;;;7.10;1.43;;;2.60;99.90;;;;;;5074374;28;20053;-66
2022/02/05 01:30:26;;;;;;;1.93;1.00;;;2.60;99.90;;;;;;5074175;28;20049;-66
2022/02/05 01:33:08;;;;;;;4.80;1.00;;;2.50;99.90;;;;;;5074500;28;20563;-66
2022/02/05 01:35:43;;;;;;;3.00;0.93;;;2.60;99.90;;;;;;5074005;28;20056;-67
2022/02/05 01:52:20;;;;;;;4.80;1.40;;;2.50;99.90;;;;;;5062623;28;20048;-66
2022/02/05 01:55:09;;;;;;;5.27;1.40;;;2.40;99.90;;;;;;5073782;28;20119;-66
2022/02/05 01:57:52;;;;;;;5.73;1.80;;;2.40;99.90;;;;;;5074104;28;20052;-66
2022/02/05 02:06:08;;;;;;;7.03;2.00;;;2.40;99.90;;;;;;5073440;28;20126;-66
2022/02/05 02:11:36;;;;;;;4.27;1.50;;;2.40;99.90;;;;;;5042251;28;20127;-66
2022/02/05 02:17:22;;;;;;;3.97;1.50;;;2.40;99.90;;;;;;5065807;28;20131;-67
2022/02/05 02:20:05;;;;;;;4.13;1.77;;;2.60;99.90;;;;;;5072941;28;20048;-66
2022/02/05 02:22:40;;;;;;;7.33;2.17;;;2.60;99.90;;;;;;5073557;28;20067;-66
2022/02/05 02:25:17;;;;;;;8.20;2.37;;;2.70;99.90;;;;;;5072899;28;20099;-67
2022/02/05 02:27:52;;;;;;;5.87;1.80;;;2.70;99.90;;;;;;5073450;28;20071;-66
2022/02/05 02:30:23;;;;;;;6.67;2.00;;;2.70;99.90;;;;;;5073155;28;20139;-66
2022/02/05 02:32:57;;;;;;;5.30;1.80;;;2.80;99.90;;;;;;5073207;28;20062;-66
2022/02/05 02:35:27;;;;;;;3.67;1.70;;;2.80;99.90;;;;;;5072950;28;20060;-66
2022/02/05 02:38:00;;;;;;;5.83;1.93;;;2.90;99.90;;;;;;5072868;28;20155;-67
2022/02/05 02:40:36;;;;;;;3.57;1.60;;;2.90;99.90;;;;;;5072843;28;20160;-66
2022/02/05 02:43:07;;;;;;;5.37;1.70;;;2.80;99.90;;;;;;5072765;28;20055;-66
2022/02/05 02:45:35;;;;;;;3.70;1.80;;;2.80;99.90;;;;;;5072519;28;20507;-66
2022/02/05 02:48:01;;;;;;;6.43;2.00;;;2.80;99.90;;;;;;5072844;28;20075;-66
2022/02/05 02:50:32;;;;;;;6.23;1.77;;;2.80;99.90;;;;;;5072478;28;20055;-66
2022/02/05 02:58:31;;;;;;;3.70;1.93;;;2.90;99.90;;;;;;5072738;28;20060;-66
2022/02/05 03:01:00;;;;;;;7.90;1.73;;;2.90;99.90;;;;;;5072893;28;20048;-66
2022/02/05 03:03:28;;;;;;;3.90;1.70;;;2.90;99.90;;;;;;5072763;28;20060;-66
2022/02/05 03:05:55;;;;;;;6.87;1.90;;;2.90;99.90;;;;;;5072457;28;20139;-66
2022/02/05 03:08:23;;;;;;;4.97;1.73;;;2.80;99.90;;;;;;5072353;28;20131;-67
2022/02/05 03:10:51;;;;;;;7.07;1.87;;;2.80;99.90;;;;;;5072599;28;20125;-66
2022/02/05 03:13:18;;;;;;;5.90;1.47;;;2.90;99.90;;;;;;5071828;28;20135;-66
2022/02/05 03:15:44;;;;;;;5.67;1.63;;;3.00;99.90;;;;;;5071917;28;20148;-66
2022/02/05 03:18:15;;;;;;;5.37;1.57;;;2.90;99.90;;;;;;5072078;28;20132;-66
2022/02/05 03:20:43;;;;;;;4.50;1.30;;;2.90;99.90;;;;;;5071295;28;20056;-66
2022/02/05 03:23:10;;;;;;;7.37;2.10;;;3.00;99.90;;;;;;5072127;28;20135;-66
2022/02/05 03:25:39;;;;;;;10.23;1.77;;;3.00;99.90;;;;;;5071937;28;20127;-66
2022/02/05 03:28:06;;;;;;;6.53;1.60;;;3.00;99.90;;;;;;5072175;28;20593;-66
2022/02/05 03:30:33;;;;;;;3.57;1.50;;;3.00;99.90;;;;;;5071926;28;20131;-66
2022/02/05 03:33:00;;;;;;;3.27;1.40;;;3.00;99.90;;;;;;5072006;28;20080;-66
2022/02/05 03:35:27;;;;;;;6.37;1.40;;;3.00;99.90;;;;;;5071656;28;20060;-67
2022/02/05 03:37:54;;;;;;;7.00;2.13;;;3.00;99.90;;;;;;5071853;28;20143;-66
2022/02/05 03:40:22;;;;;;;7.10;1.73;;;3.10;99.90;;;;;;5072157;28;20132;-66
2022/02/05 03:42:50;;;;;;;4.70;1.33;;;3.10;99.90;;;;;;5071723;28;20131;-66
2022/02/05 03:45:17;;;;;;;8.70;1.70;;;3.10;99.90;;;;;;5071507;28;20076;-66
2022/02/05 03:47:44;;;;;;;5.43;1.50;;;3.10;99.90;;;;;;5071733;28;20095;-66
2022/02/05 03:50:11;;;;;;;4.60;1.60;;;3.10;99.90;;;;;;5072312;28;20144;-66
2022/02/05 03:52:39;;;;;;;11.73;1.63;;;3.10;99.90;;;;;;5071799;28;20052;-66
2022/02/05 03:55:08;;;;;;;6.40;1.27;;;3.10;99.90;;;;;;5071385;28;20580;-66
2022/02/05 03:57:35;;;;;;;6.80;1.47;;;3.10;99.90;;;;;;5072026;28;20056;-66
2022/02/05 04:00:07;;;;;;;6.23;1.57;;;3.00;99.90;;;;;;5071671;28;20500;-66
2022/02/05 04:02:34;;;;;;;5.67;1.50;;;2.90;99.90;;;;;;5071968;28;20543;-67
2022/02/05 04:05:01;;;;;;;7.10;1.47;;;2.90;99.90;;;;;;5071518;28;20140;-66
2022/02/05 04:07:31;;;;;;;4.40;1.40;;;2.90;99.90;;;;;;5071691;28;20476;-66
2022/02/05 04:10:00;;;;;;;4.03;1.60;;;2.90;99.90;;;;;;5072031;28;20451;-66
2022/02/05 04:17:57;;;;;;;4.50;1.47;;;2.90;99.90;;;;;;5072046;28;20055;-66
2022/02/05 04:20:24;;;;;;;3.87;1.60;;;2.90;99.90;;;;;;5072383;28;20476;-66
2022/02/05 04:22:51;;;;;;;6.67;1.67;;;2.90;99.90;;;;;;5072143;28;20072;-66
2022/02/05 04:25:18;;;;;;;7.83;1.43;;;3.00;99.90;;;;;;5071768;28;20124;-66
2022/02/05 04:27:45;;;;;;;7.90;1.87;;;3.00;99.90;;;;;;5071776;28;20135;-67
2022/02/05 04:30:14;;;;;;;7.93;1.57;;;3.00;99.90;;;;;;5072003;28;20135;-68
2022/02/05 04:32:41;;;;;;;8.47;1.40;;;3.00;99.90;;;;;;5075647;28;20059;-67
2022/02/05 04:35:09;;;;;;;4.50;1.70;;;3.00;99.90;;;;;;5075570;28;20131;-66
2022/02/05 04:37:36;;;;;;;7.20;1.40;;;2.90;99.90;;;;;;5075446;28;20131;-66
2022/02/05 04:40:15;;;;;;;4.30;1.40;;;2.90;99.90;;;;;;5075495;28;20080;-66
2022/02/05 04:42:51;;;;;;;8.20;1.40;;;2.90;99.90;;;;;;5075574;28;20139;-66
2022/02/05 04:45:39;;;;;;;4.57;1.47;;;2.80;99.90;;;;;;5075285;28;20540;-66
2022/02/05 04:53:44;;;;;;;6.13;1.37;;;2.60;99.90;;;;;;5075326;28;20110;-66
2022/02/05 04:56:21;;;;;;;6.23;1.53;;;2.60;99.90;;;;;;5075712;28;20060;-66
2022/02/05 04:59:22;;;;;;;4.80;1.77;;;2.50;99.90;;;;;;5075267;28;20143;-67
2022/02/05 05:02:03;;;;;;;9.73;2.13;;;2.40;99.90;;;;;;5074603;28;20051;-67
2022/02/05 05:04:35;;;;;;;3.23;1.37;;;2.40;99.90;;;;;;5075265;28;20145;-66
2022/02/05 05:09:56;;;;;;;4.07;1.53;;;2.50;99.90;;;;;;5074899;28;20470;-66
2022/02/05 05:12:31;;;;;;;7.77;1.80;;;2.50;99.90;;;;;;5074941;28;20048;-66
2022/02/05 05:15:25;;;;;;;7.17;2.13;;;2.50;99.90;;;;;;5074634;28;20390;-66
2022/02/05 05:20:39;;;;;;;5.43;1.90;;;2.60;99.90;;;;;;5074877;28;20113;-66
2022/02/05 05:23:06;;;;;;;5.17;1.77;;;2.50;99.90;;;;;;5075153;28;20045;-66
2022/02/05 05:25:34;;;;;;;3.80;1.67;;;2.60;99.90;;;;;;5077141;28;20127;-66
2022/02/05 05:28:02;;;;;;;4.67;1.57;;;2.60;99.90;;;;;;5076605;28;20072;-66
2022/02/05 05:30:29;;;;;;;6.03;1.80;;;2.60;99.90;;;;;;5074468;28;20143;-66
2022/02/05 05:32:57;;;;;;;4.97;1.73;;;2.60;99.90;;;;;;5074746;28;20091;-66
2022/02/05 05:35:24;;;;;;;8.87;2.07;;;2.60;99.90;;;;;;5074221;28;20098;-66
2022/02/05 05:37:52;;;;;;;4.77;1.60;;;2.60;99.90;;;;;;5074165;28;20462;-66
2022/02/05 05:40:19;;;;;;;4.67;1.60;;;2.70;99.90;;;;;;5074343;28;20052;-66
2022/02/05 05:42:52;;;;;;;6.50;1.73;;;2.70;99.90;;;;;;5073352;28;20587;-66
2022/02/05 05:45:38;;;;;;;4.10;1.70;;;2.70;99.90;;;;;;5073651;28;20056;-66
2022/02/05 05:48:10;;;;;;;5.53;1.77;;;2.60;99.90;;;;;;5074016;28;20064;-66
2022/02/05 05:53:29;;;;;;;4.33;1.47;;;2.70;99.90;;;;;;5037269;28;20040;-66
2022/02/05 05:56:01;;;;;;;6.57;1.77;;;2.70;99.90;;;;;;5073697;28;20136;-66
2022/02/05 05:58:28;;;;;;;5.07;1.93;;;2.60;99.90;;;;;;5073895;28;20068;-66
2022/02/05 06:00:55;;;;;;;5.73;1.87;;;2.60;99.90;;;;;;5073606;28;20139;-66
2022/02/05 06:03:23;;;;;;;6.00;1.60;;;2.60;99.90;;;;;;5073782;28;20089;-66
2022/02/05 06:05:50;;;;;;;3.40;1.60;;;2.60;99.90;;;;;;5073400;28;20139;-66
2022/02/05 06:08:19;;;;;;;8.77;2.37;;;2.60;99.90;;;;;;5073475;28;20088;-66
2022/02/05 06:10:46;;;;;;;8.50;2.10;;;2.50;99.90;;;;;;5073840;28;20052;-66
2022/02/05 06:13:13;;;;;;;8.87;2.10;;;2.40;99.90;;;;;;5073382;28;20131;-66
2022/02/05 06:15:41;;;;;;;6.80;2.07;;;2.40;99.90;;;;;;5073147;28;20143;-66
2022/02/05 06:18:09;;;;;;;6.73;2.00;;;2.30;99.90;;;;;;5073356;28;20062;-66
2022/02/05 06:20:38;;;;;;;7.23;2.43;;;2.20;99.90;;;;;;5073377;28;20143;-66
2022/02/05 06:23:05;;;;;;;11.00;2.10;;;2.20;99.90;;;;;;5073498;28;20129;-66
2022/02/05 06:25:33;;;;;;;9.20;2.90;;;2.20;99.90;;;;;;5072901;28;20467;-67
2022/02/05 06:28:00;;;;;;;12.63;2.40;;;2.20;99.90;;;;;;5073699;28;20092;-66
2022/02/05 06:30:27;;;;;;;6.87;2.07;;;2.30;99.90;;;;;;5072973;28;20559;-66
2022/02/05 06:32:54;;;;;;;7.03;2.30;;;2.40;99.90;;;;;;5073148;28;20135;-66
2022/02/05 06:35:21;;;;;;;3.60;1.73;;;2.40;99.90;;;;;;5072910;28;20102;-66
2022/02/05 06:37:49;;;;;;;5.83;2.10;;;2.40;99.90;;;;;;5073163;28;20052;-66
2022/02/05 06:40:17;;;;;;;5.87;2.47;;;2.50;99.90;;;;;;5072988;28;20348;-67
2022/02/05 06:42:46;;;;;;;5.80;1.80;;;2.50;99.90;;;;;;5072840;28;20083;-66
2022/02/05 06:45:13;;;;;;;12.30;2.73;;;2.50;99.90;;;;;;5072593;28;20052;-66
2022/02/05 06:47:40;;;;;;;6.90;2.43;;;2.60;99.90;;;;;;5073178;28;20072;-66
2022/02/05 06:50:07;;;;;;;9.07;2.67;;;2.50;99.90;;;;;;5072954;28;20131;-66
2022/02/05 06:52:34;;;;;;;7.20;2.60;;;2.60;99.90;;;;;;5074982;28;20057;-66
2022/02/05 06:55:03;;;;;;;10.80;2.80;;;2.60;99.90;;;;;;5075041;28;20136;-66
2022/02/05 06:57:30;;;;;;;5.07;1.93;;;2.60;99.90;;;;;;5073524;28;20131;-66
2022/02/05 06:59:57;;;;;;;8.87;2.53;;;2.70;99.90;;;;;;5072832;28;20051;-66
2022/02/05 07:02:24;;;;;;;6.83;2.43;;;2.70;99.90;;;;;;5072881;28;20123;-69
2022/02/05 07:04:51;;;;;;;9.60;2.57;;;2.70;99.90;;;;;;5072784;28;20485;-70
2022/02/05 07:07:18;;;;;;;10.27;2.23;;;2.60;99.90;;;;;;5073111;28;20052;-67
2022/02/05 07:09:45;;;;;;;8.70;2.40;;;2.60;99.90;;;;;;5072994;28;20080;-67
2022/02/05 07:12:13;;;;;;;9.20;3.17;;;2.60;99.90;;;;;;5072576;28;20048;-66
2022/02/05 07:14:42;;;;;;;6.43;2.90;;;2.60;99.90;;;;;;5072684;28;20087;-66
2022/02/05 07:17:16;;;;;;;17.13;3.50;;;2.70;99.90;;;;;;5072760;28;20052;-66
2022/02/05 07:19:55;;;;;;;12.70;2.80;;;2.70;99.90;;;;;;5072946;28;20386;-66
2022/02/05 07:22:24;;;;;;;7.13;2.77;;;2.70;99.90;;;;;;5072589;28;20048;-66
2022/02/05 07:29:13;;;;;;;8.07;2.67;;;2.70;99.90;;;;;;5072460;28;20059;-69
2022/02/05 07:30:37;;;;;;;6.93;3.13;;;2.80;99.90;;;;;;5072635;28;20102;-66
2022/02/05 07:33:04;;;;;;;9.17;3.03;;;2.80;99.90;;;;;;5072675;28;20052;-67
2022/02/05 07:35:31;;;;;;;8.33;2.47;;;2.80;99.90;;;;;;5072228;28;20064;-66
2022/02/05 07:37:58;;;;;;;8.27;2.40;;;2.80;99.90;;;;;;5072480;28;20474;-67
2022/02/05 07:40:25;;;;;;;11.07;2.87;;;2.80;99.90;;;;;;5072650;28;20143;-67
2022/02/05 07:42:53;;;;;;;6.63;2.80;;;2.80;99.90;;;;;;5072369;28;20151;-66
2022/02/05 07:45:20;;;;;;;10.73;3.10;;;2.90;99.90;;;;;;5072008;28;20131;-66
2022/02/05 07:47:47;;;;;;;10.93;3.00;;;3.00;99.90;;;;;;5072509;28;20052;-67
2022/02/05 07:50:15;;;;;;;11.80;2.80;;;3.10;99.90;;;;;;5072171;28;20080;-66
2022/02/05 07:52:41;;;;;;;10.00;2.67;;;3.00;99.90;;;;;;5072296;28;20052;-66
2022/02/05 07:55:09;;;;;;;5.40;2.83;;;3.00;99.90;;;;;;5071651;28;20140;-67
2022/02/05 07:57:36;;;;;;;7.70;3.63;;;3.00;99.90;;;;;;5072144;28;20088;-66
2022/02/05 08:00:05;;;;;;;8.77;3.23;;;3.10;99.90;;;;;;5072161;28;20136;-67
2022/02/05 08:02:32;;;;;;;7.10;2.90;;;3.20;99.90;;;;;;5071920;28;20132;-67
2022/02/05 08:04:59;;;;;;;14.20;3.57;;;3.30;99.90;;;;;;5071561;28;20055;-67
2022/02/05 08:07:26;;;;;;;8.40;2.50;;;3.20;99.90;;;;;;5071337;28;20052;-66
2022/02/05 08:10:00;;;;;;;10.00;2.93;;;3.40;99.90;;;;;;5071989;28;20473;-66
2022/02/05 08:12:28;;;;;;;14.30;3.67;;;3.40;99.90;;;;;;5072115;28;20460;-66
2022/02/05 08:14:57;;;;;;;7.20;2.80;;;3.20;99.90;;;;;;5071859;28;20060;-67
2022/02/05 08:17:28;;;;;;;12.27;3.13;;;3.20;99.90;;;;;;5071818;28;20574;-67
2022/02/05 08:19:55;;;;;;;10.70;3.23;;;3.20;99.90;;;;;;5072471;28;20056;-67
2022/02/05 08:22:22;;;;;;;11.10;3.67;;;3.30;99.90;;;;;;5071812;28;20138;-67
2022/02/05 08:24:49;;;;;;;12.37;2.97;;;3.30;99.90;;;;;;5072209;28;20475;-67
2022/02/05 08:27:17;;;;;;;9.07;3.00;;;3.50;99.90;;;;;;5071671;28;20051;-67
2022/02/05 08:29:52;;;;;;;9.03;2.97;;;3.60;99.90;;;;;;5071753;28;20053;-67
2022/02/05 08:32:22;;;;;;;10.20;3.10;;;3.60;99.90;;;;;;5071758;28;20497;-67
2022/02/05 08:34:50;;;;;;;9.33;2.80;;;3.60;99.90;;;;;;5071347;28;20056;-67
2022/02/05 08:37:17;;;;;;;19.63;3.67;;;3.70;99.90;;;;;;5071577;28;20079;-67
2022/02/05 08:39:44;;;;;;;10.00;3.10;;;3.70;99.90;;;;;;5071438;28;20088;-67
2022/02/05 08:42:12;;;;;;;16.20;3.10;;;3.80;99.90;;;;;;5071535;28;20479;-67
2022/02/05 08:44:39;;;;;;;11.57;3.00;;;3.80;99.90;;;;;;5071538;28;20123;-67
2022/02/05 08:47:06;;;;;;;11.60;3.37;;;3.90;99.90;;;;;;5071551;28;20139;-68
2022/02/05 08:49:33;;;;;;;12.73;3.37;;;4.40;99.90;;;;;;5071223;28;20091;-68
2022/02/05 08:52:05;;;;;;;8.37;3.00;;;4.70;99.90;;;;;;5071093;28;20067;-69
2022/02/05 08:54:32;;;;;;;8.63;3.10;;;4.90;99.90;;;;;;5071351;28;20059;-69
2022/02/05 08:56:59;;;;;;;9.50;2.85;;;4.70;99.90;;;;;;5070862;28;20110;-69
2022/02/05 08:59:30;;;;;;;8.77;3.00;;;5.00;99.90;;;;;;5071207;28;20121;-69
2022/02/05 09:02:01;;;;;;;11.05;2.95;;;6.90;99.90;;;;;;5070978;28;20421;-69
2022/02/05 09:04:34;;;;;;;7.93;2.22;;;9.30;99.90;;;;;;5071163;28;20056;-69
2022/02/05 09:07:02;;;;;;;8.55;2.90;;;8.60;99.90;;;;;;5070735;28;20095;-69
2022/02/05 09:09:38;;;;;;;7.53;2.50;;;5.30;99.90;;;;;;5070878;28;20123;-69
2022/02/05 09:12:19;;;;;;;8.75;2.70;;;4.40;99.90;;;;;;5071161;28;20053;-68
2022/02/05 09:14:49;;;;;;;9.35;3.05;;;4.20;99.90;;;;;;5070494;28;20519;-68
2022/02/05 09:17:16;;;;;;;10.27;3.00;;;4.40;99.90;;;;;;5071263;28;20060;-68
2022/02/05 09:19:43;;;;;;;10.30;3.10;;;4.00;99.90;;;;;;5074249;28;20051;-66
2022/02/05 09:22:12;;;;;;;8.30;3.13;;;4.20;99.90;;;;;;5074385;28;20139;-66
2022/02/05 09:24:39;;;;;;;8.40;2.77;;;4.30;99.90;;;;;;5074571;28;20135;-66
2022/02/05 09:27:10;;;;;;;9.80;2.80;;;4.50;99.90;;;;;;5074551;28;20151;-66
2022/02/05 09:29:43;;;;;;;11.00;3.23;;;4.30;99.90;;;;;;5074677;28;20070;-66
2022/02/05 09:32:10;;;;;;;10.23;2.63;;;4.10;99.90;;;;;;5074200;28;20045;-67
2022/02/05 09:34:37;;;;;;;13.07;3.47;;;4.00;99.90;;;;;;5073801;28;20083;-66
2022/02/05 09:37:04;;;;;;;10.30;3.60;;;3.90;99.90;;;;;;5073925;28;20106;-67
2022/02/05 09:39:33;;;;;;;6.63;3.27;;;4.10;99.90;;;;;;5074772;28;20091;-66
2022/02/05 09:42:01;;;;;;;10.17;2.63;;;5.80;99.90;;;;;;5075774;28;20139;-66
2022/02/05 09:44:29;;;;;;;8.82;2.72;;;8.90;99.90;;;;;;5075275;28;20048;-66
2022/02/05 09:46:56;;;;;;;8.95;2.53;;;8.70;99.90;;;;;;5074082;28;20052;-66
2022/02/05 09:49:25;;;;;;;7.85;2.33;;;9.60;99.90;;;;;;5074211;28;20508;-69
2022/02/05 09:52:06;;;;;;;11.25;2.78;;;11.50;99.90;;;;;;5074088;28;20049;-69
2022/02/05 09:54:35;;;;;;;9.18;2.60;;;10.00;99.90;;;;;;5073816;28;20087;-69
2022/02/05 09:57:03;;;;;;;8.68;2.97;;;11.10;99.90;;;;;;5073779;28;20090;-69
2022/02/05 09:59:31;;;;;;;9.40;2.60;;;11.80;99.90;;;;;;5073393;28;20501;-68
2022/02/05 10:02:20;;;;;;;6.43;2.22;;;10.40;99.90;;;;;;5073528;28;20106;-68
2022/02/05 10:04:53;;;;;;;6.43;2.50;;;13.40;99.90;;;;;;5059930;28;20055;-68
2022/02/05 10:07:20;;;;;;;7.30;2.40;;;10.90;99.90;;;;;;5073510;28;20132;-68
2022/02/05 10:09:56;;;;;;;12.20;3.42;;;11.80;99.90;;;;;;5073614;28;20084;-69
2022/02/05 10:12:23;;;;;;;8.60;3.25;;;8.90;99.90;;;;;;5073656;28;20088;-68
2022/02/05 10:14:56;;;;;;;9.70;3.05;;;8.10;99.90;;;;;;5073344;28;20136;-69
2022/02/05 10:17:38;;;;;;;10.80;2.67;;;6.80;99.90;;;;;;5073448;28;20051;-69
2022/02/05 10:20:07;;;;;;;9.18;2.50;;;6.20;99.90;;;;;;5073568;28;20055;-69
2022/02/05 10:22:38;;;;;;;6.85;2.50;;;6.00;99.90;;;;;;5073288;28;20139;-69
2022/02/05 10:25:17;;;;;;;8.00;2.85;;;5.70;99.90;;;;;;5073185;28;20139;-66
2022/02/05 10:27:45;;;;;;;9.73;3.10;;;4.90;99.90;;;;;;5073391;28;20571;-66
2022/02/05 10:30:14;;;;;;;11.23;3.05;;;4.70;99.90;;;;;;5073441;28;20148;-66
2022/02/05 10:32:44;;;;;;;10.20;2.90;;;4.50;99.90;;;;;;5073442;28;20052;-66
2022/02/05 10:35:24;;;;;;;10.67;3.20;;;4.30;99.90;;;;;;5073086;28;20056;-66
2022/02/05 10:37:57;;;;;;;11.83;3.03;;;4.30;99.90;;;;;;5073340;28;20067;-66
2022/02/05 10:40:42;;;;;;;6.87;2.80;;;4.60;99.90;;;;;;5073106;28;20052;-66
2022/02/05 10:43:08;;;;;;;8.17;2.63;;;4.60;99.90;;;;;;5073031;28;20139;-66
2022/02/05 10:45:42;;;;;;;;;;;4.30;99.90;;;;;;5073007;28;20048;-66
2022/02/05 10:48:10;;;;;;;12.63;3.10;;;4.40;99.90;;;;;;5072932;28;20375;-66
2022/02/05 10:50:38;;;;;;;8.33;2.57;;;4.50;99.90;;;;;;5072649;28;20049;-66
2022/02/05 10:53:10;;;;;;;12.87;2.87;;;4.50;99.90;;;;;;5072573;28;20083;-66
2022/02/05 10:55:48;;;;;;;10.87;3.20;;;4.60;99.90;;;;;;5072430;28;20139;-66
2022/02/05 10:58:29;;;;;;;8.30;3.20;;;4.50;99.90;;;;;;5072742;28;20056;-66
2022/02/05 11:06:32;;;;;;;6.77;3.00;;;4.50;99.90;;;;;;5072436;28;20048;-66
2022/02/05 11:08:59;;;;;;;13.43;3.20;;;4.60;99.90;;;;;;5072448;28;20045;-66
2022/02/05 11:13:14;;;;;;;10.83;2.93;;;5.10;99.90;;;;;;5072194;28;20512;-66
2022/02/05 11:17:29;;;;;;;9.15;3.13;;;5.90;99.90;;;;;;5072371;28;20064;-66
2022/02/05 11:19:57;;;;;;;14.55;3.30;;;6.50;99.90;;;;;;5072511;28;20071;-66
2022/02/05 11:22:24;;;;;;;15.13;2.78;;;5.20;99.90;;;;;;5072181;28;20131;-66
2022/02/05 11:24:54;;;;;;;10.52;2.33;;;5.20;99.90;;;;;;5071647;28;20124;-67
2022/02/05 11:27:22;;;;;;;8.17;2.53;;;5.20;99.90;;;;;;5072211;28;20302;-66
2022/02/05 11:29:49;;;;;;;7.90;2.70;;;5.10;99.90;;;;;;5072437;28;20132;-66
2022/02/05 11:32:23;;;;;;;10.65;2.92;;;6.90;99.90;;;;;;5072184;28;20131;-66
2022/02/05 11:35:08;;;;;;;9.13;2.40;;;5.60;99.90;;;;;;5067253;28;20459;-68
2022/02/05 11:37:54;;;;;;;8.00;2.75;;;5.70;99.90;;;;;;5067000;28;20055;-66
2022/02/05 11:40:54;;;;;;;14.10;2.65;;;5.80;99.90;;;;;;5064826;28;20052;-66
2022/02/05 11:43:24;;;;;;;8.48;2.50;;;5.20;99.90;;;;;;5065339;28;20135;-66
2022/02/05 11:46:08;;;;;;;13.63;2.58;;;5.20;99.90;;;;;;5071412;28;20593;-66
2022/02/05 11:48:55;;;;;;;6.05;2.22;;;5.30;99.90;;;;;;5072036;28;20076;-68
2022/02/05 11:51:23;;;;;;;6.43;1.98;;;5.40;99.90;;;;;;5071975;28;20128;-67
2022/02/05 11:54:15;;;;;;;9.43;2.70;;;5.30;99.90;;;;;;5071773;28;20091;-66
2022/02/05 11:56:56;;;;;;;14.55;2.42;;;5.30;99.90;;;;;;5067521;28;20051;-66
2022/02/05 11:59:26;;;;;;;5.78;1.73;;;5.50;99.90;;;;;;5051855;28;20493;-66
2022/02/05 12:02:17;;;;;;;9.02;2.15;;;5.30;99.90;;;;;;5051472;28;20147;-66
2022/02/05 12:04:44;;;;;;;7.00;2.27;;;5.10;99.90;;;;;;5051317;28;20053;-66
2022/02/05 12:07:12;;;;;;;7.97;2.63;;;5.10;99.90;;;;;;5051596;28;20053;-66
2022/02/05 12:09:44;;;;;;;9.90;2.20;;;5.10;99.90;;;;;;5052084;28;20089;-66
2022/02/05 12:12:37;;;;;;;9.03;2.20;;;5.10;99.90;;;;;;5051824;28;20140;-68
2022/02/05 12:15:24;;;;;;;7.70;2.23;;;5.30;99.90;;;;;;5037237;28;20057;-66
2022/02/05 12:18:15;;;;;;;8.80;2.00;;;5.10;99.90;;;;;;5051834;28;20475;-66
2022/02/05 12:21:08;;;;;;;7.17;2.40;;;5.10;99.90;;;;;;5051660;28;20053;-66
2022/02/05 12:26:59;;;;;;;20.03;5.70;;;5.10;99.90;;;;;;5051860;28;20098;-66
2022/02/05 12:29:31;;;;;;;6.20;1.87;;;5.10;99.90;;;;;;5052152;28;20048;-66
2022/02/05 12:32:00;;;;;;;5.75;1.98;;;5.10;99.90;;;;;;5052281;28;20378;-66
2022/02/05 12:34:39;;;;;;;8.03;2.03;;;5.20;99.90;;;;;;5051364;28;20059;-66
2022/02/05 12:37:06;;;;;;;9.57;2.03;;;5.20;99.90;;;;;;5051204;28;20056;-67
2022/02/05 12:39:35;;;;;;;7.57;1.88;;;5.50;99.90;;;;;;5051482;28;20505;-68
2022/02/05 12:42:07;;;;;;;9.13;1.80;;;5.70;99.90;;;;;;5051321;28;20144;-69
2022/02/05 12:44:37;;;;;;;6.93;1.80;;;5.80;99.90;;;;;;5051118;28;20562;-69
2022/02/05 12:47:10;;;;;;;5.28;1.70;;;5.80;99.90;;;;;;5051488;28;20501;-68
2022/02/05 12:49:44;;;;;;;7.18;2.33;;;5.60;99.90;;;;;;5051647;28;20118;-66
2022/02/05 12:52:13;;;;;;;5.90;1.52;;;5.60;99.90;;;;;;5051704;28;20060;-66
2022/02/05 12:54:47;;;;;;;6.22;1.40;;;6.40;99.90;;;;;;5055546;28;20457;-66
2022/02/05 12:57:17;;;;;;;6.82;1.60;;;6.50;99.90;;;;;;5056642;28;20454;-66
2022/02/05 12:59:45;;;;;;;6.78;1.90;;;7.00;99.90;;;;;;5057093;28;20083;-66
2022/02/05 13:02:15;;;;;;;5.00;1.40;;;8.00;99.90;;;;;;5055670;28;20127;-66
2022/02/05 13:04:44;;;;;;;5.38;1.60;;;6.70;99.90;;;;;;5054997;28;20044;-66
2022/02/05 13:07:13;;;;;;;5.30;1.30;;;8.70;99.90;;;;;;5055882;28;20136;-66
2022/02/05 13:09:46;;;;;;;8.25;1.90;;;7.50;99.90;;;;;;5055441;28;20044;-66
2022/02/05 13:12:15;;;;;;;5.65;1.67;;;8.30;99.90;;;;;;5056998;28;20110;-66
2022/02/05 13:14:47;;;;;;;10.13;1.98;;;8.90;99.90;;;;;;5056674;28;20124;-66
2022/02/05 13:17:36;;;;;;;5.05;1.63;;;7.20;99.90;;;;;;5056461;28;20053;-66
2022/02/05 13:20:22;;;;;;;9.55;1.90;;;6.60;99.90;;;;;;5055401;28;20049;-66
2022/02/05 13:25:45;;;;;;;8.43;2.08;;;6.30;99.90;;;;;;5054490;28;20501;-66
2022/02/05 13:28:31;;;;;;;4.50;1.95;;;10.00;99.90;;;;;;5055447;28;20057;-66
2022/02/05 13:36:43;;;;;;;4.70;1.85;;;7.40;99.90;;;;;;5049362;28;20053;-66
2022/02/05 13:39:23;;;;;;;5.75;1.80;;;7.70;99.90;;;;;;5054673;28;20056;-66
2022/02/05 13:41:55;;;;;;;7.00;1.67;;;8.80;99.90;;;;;;5054688;28;20084;-66
2022/02/05 13:44:24;;;;;;;6.43;1.83;;;11.10;99.90;;;;;;5054662;28;20435;-66
2022/02/05 13:47:02;;;;;;;4.70;1.50;;;10.20;99.90;;;;;;5054195;28;20072;-66
2022/02/05 13:49:30;;;;;;;6.65;1.88;;;10.30;99.90;;;;;;5054403;28;20481;-69
2022/02/05 13:52:06;;;;;;;6.38;1.80;;;11.90;99.90;;;;;;5054793;28;20057;-69
2022/02/05 13:54:34;;;;;;;7.13;1.58;;;10.30;99.90;;;;;;5054457;28;20045;-69
2022/02/05 13:57:02;;;;;;;4.80;1.42;;;9.70;99.90;;;;;;5053546;28;20049;-69
2022/02/05 13:59:29;;;;;;;5.53;1.60;;;9.30;99.90;;;;;;5053824;28;20140;-69
2022/02/05 14:01:56;;;;;;;5.50;1.40;;;9.50;99.90;;;;;;5053872;28;20091;-69
2022/02/05 14:04:24;;;;;;;5.90;1.45;;;8.70;99.90;;;;;;5053322;28;20486;-69
2022/02/05 14:06:58;;;;;;;5.38;1.63;;;8.60;99.90;;;;;;5054029;28;20052;-69
2022/02/05 14:09:27;;;;;;;4.63;1.60;;;7.80;99.90;;;;;;5054278;28;20127;-68
2022/02/05 14:11:54;;;;;;;5.45;1.60;;;7.80;99.90;;;;;;5053816;28;20135;-69
2022/02/05 14:14:29;;;;;;;5.25;2.03;;;7.40;99.90;;;;;;5053714;28;20512;-68
2022/02/05 14:16:56;;;;;;;3.58;1.60;;;7.60;99.90;;;;;;5053620;28;20077;-69
2022/02/05 14:19:25;;;;;;;6.32;1.60;;;7.40;99.90;;;;;;5053921;28;20048;-69
2022/02/05 14:21:53;;;;;;;5.75;1.90;;;8.20;99.90;;;;;;5054294;28;20493;-69
2022/02/05 14:24:24;;;;;;;4.63;1.50;;;7.80;99.90;;;;;;5053386;28;20045;-69
2022/02/05 14:26:58;;;;;;;5.38;1.70;;;7.60;99.90;;;;;;5053703;28;20057;-66
2022/02/05 14:29:26;;;;;;;5.20;1.50;;;6.80;99.90;;;;;;5054566;28;20505;-66
2022/02/05 14:31:55;;;;;;;7.47;2.75;;;6.50;99.90;;;;;;5054037;28;20095;-69
2022/02/05 14:34:36;;;;;;;5.68;2.05;;;6.50;99.90;;;;;;5053708;28;20173;-69
2022/02/05 14:42:31;;;;;;;4.13;1.63;;;5.90;99.90;;;;;;5053734;28;20056;-66
2022/02/05 14:44:58;;;;;;;9.32;2.25;;;5.90;99.90;;;;;;5053291;28;20063;-69
2022/02/05 14:47:25;;;;;;;5.07;1.70;;;6.30;99.90;;;;;;5053525;28;20091;-66
2022/02/05 14:49:52;;;;;;;6.93;1.65;;;6.30;99.90;;;;;;5053779;28;20106;-66
2022/02/05 14:52:19;;;;;;;5.70;1.95;;;6.00;99.90;;;;;;5053659;28;20481;-66
2022/02/05 14:54:47;;;;;;;7.53;2.05;;;5.80;99.90;;;;;;5053046;28;20056;-66
2022/02/05 14:57:15;;;;;;;7.95;2.05;;;5.70;99.90;;;;;;5053525;28;20144;-67
2022/02/05 14:59:43;;;;;;;6.40;2.50;;;5.60;99.90;;;;;;5053816;28;20084;-69